Time,TemperatureF,DewpointF,PressureIn,WindDirection,WindDirectionDegrees,WindSpeedMPH,WindSpeedGustMPH,Humidity,HourlyPrecipIn,Conditions,Clouds,dailyrainin,SoftwareType,DateUTC
2013-01-13 00:03:00,5.3,1.0,30.06,NW,309,2.0,5.0,82,0.00,,OVC033,0.00,VWS V14.01,2013-01-13 06:03:00,
2013-01-13 00:08:00,5.3,1.3,30.06,WNW,283,1.0,5.0,83,0.00,,OVC033,0.00,VWS V14.01,2013-01-13 06:08:00,
2013-01-13 00:13:00,5.3,1.3,30.06,West,271,3.0,5.0,83,0.00,,OVC033,0.00,VWS V14.01,2013-01-13 06:13:00,
2013-01-13 00:18:00,5.4,1.4,30.07,West,274,4.0,5.0,83,0.00,,OVC033,0.00,VWS V14.01,2013-01-13 06:18:00,
2013-01-13 00:23:00,5.4,1.4,30.07,West,275,5.0,6.0,83,0.00,,OVC033,0.00,VWS V14.01,2013-01-13 06:23:00,
2013-01-13 00:28:00,5.5,1.2,30.07,West,280,3.0,6.0,82,0.00,,OVC033,0.00,VWS V14.01,2013-01-13 06:28:00,
2013-01-13 00:33:00,5.5,1.5,30.06,West,263,3.0,4.0,83,0.00,,OVC033,0.00,VWS V14.01,2013-01-13 06:33:00,
2013-01-13 00:38:00,5.6,1.6,30.06,West,281,2.0,6.0,83,0.00,,OVC033,0.00,VWS V14.01,2013-01-13 06:38:00,
2013-01-13 00:43:00,5.6,1.6,30.06,West,277,2.0,6.0,83,0.00,,OVC033,0.00,VWS V14.01,2013-01-13 06:43:00,
2013-01-13 00:48:00,5.5,1.2,30.07,West,271,3.0,6.0,82,0.00,,OVC033,0.00,VWS V14.01,2013-01-13 06:48:00,
2013-01-13 00:53:00,5.5,1.5,30.07,West,273,1.0,6.0,83,0.00,,OVC033,0.00,VWS V14.01,2013-01-13 06:53:00,
2013-01-13 00:58:00,5.6,1.6,30.07,WNW,295,3.0,6.0,83,0.00,,OVC033,0.00,VWS V14.01,2013-01-13 06:58:00,
2013-01-13 01:03:00,5.6,1.6,30.07,West,268,2.0,4.0,83,0.00,,OVC033,0.00,VWS V14.01,2013-01-13 07:03:00,
2013-01-13 01:08:00,5.6,1.6,30.07,WNW,284,3.0,5.0,83,0.00,,OVC033,0.00,VWS V14.01,2013-01-13 07:08:00,
2013-01-13 01:13:00,5.5,1.5,30.07,WNW,284,6.0,6.0,83,0.00,,OVC033,0.00,VWS V14.01,2013-01-13 07:13:00,
2013-01-13 01:18:00,5.5,1.5,30.07,WNW,294,3.0,6.0,83,0.00,,OVC033,0.00,VWS V14.01,2013-01-13 07:18:00,
2013-01-13 01:23:00,5.5,1.5,30.07,West,272,5.0,6.0,83,0.00,,OVC033,0.00,VWS V14.01,2013-01-13 07:23:00,
2013-01-13 01:28:00,5.5,1.5,30.07,West,277,2.0,6.0,83,0.00,,OVC033,0.00,VWS V14.01,2013-01-13 07:28:00,
2013-01-13 01:33:00,5.4,1.1,30.07,WNW,287,1.0,5.0,82,0.00,,OVC033,0.00,VWS V14.01,2013-01-13 07:33:00,
2013-01-13 01:38:00,5.4,1.4,30.08,WNW,300,2.0,6.0,83,0.00,,OVC033,0.00,VWS V14.01,2013-01-13 07:38:00,
2013-01-13 01:43:00,5.4,1.4,30.07,NW,305,2.0,6.0,83,0.00,,OVC033,0.00,VWS V14.01,2013-01-13 07:43:00,
2013-01-13 01:48:00,5.4,1.4,30.07,WNW,282,2.0,6.0,83,0.00,,OVC033,0.00,VWS V14.01,2013-01-13 07:48:00,
2013-01-13 01:53:00,5.4,1.4,30.07,WNW,287,3.0,6.0,83,0.00,,OVC033,0.00,VWS V14.01,2013-01-13 07:53:00,
2013-01-13 01:58:00,5.4,1.1,30.07,WNW,288,2.0,6.0,82,0.00,,OVC033,0.00,VWS V14.01,2013-01-13 07:58:00,
2013-01-13 02:03:00,5.4,1.4,30.07,West,278,3.0,5.0,83,0.00,,OVC033,0.00,VWS V14.01,2013-01-13 08:03:00,
2013-01-13 02:08:00,5.3,1.3,30.07,WNW,290,2.0,5.0,83,0.00,,OVC033,0.00,VWS V14.01,2013-01-13 08:08:00,
2013-01-13 02:13:00,5.3,1.3,30.08,WNW,285,4.0,5.0,83,0.00,,OVC033,0.00,VWS V14.01,2013-01-13 08:13:00,
2013-01-13 02:17:00,5.3,1.3,30.07,West,281,1.0,5.0,83,0.00,,OVC033,0.00,VWS V14.01,2013-01-13 08:17:00,
2013-01-13 02:22:00,5.2,1.2,30.08,WNW,301,1.0,5.0,83,0.00,,OVC033,0.00,VWS V14.01,2013-01-13 08:22:00,
2013-01-13 02:27:00,5.2,1.2,30.08,WNW,293,1.0,5.0,83,0.00,,OVC033,0.00,VWS V14.01,2013-01-13 08:27:00,
2013-01-13 02:32:00,5.3,1.3,30.08,NW,318,2.0,3.0,83,0.00,,OVC033,0.00,VWS V14.01,2013-01-13 08:32:00,
2013-01-13 02:37:00,5.3,1.3,30.08,WNW,293,2.0,4.0,83,0.00,,OVC033,0.00,VWS V14.01,2013-01-13 08:37:00,
2013-01-13 02:42:00,5.3,1.3,30.08,WNW,290,1.0,4.0,83,0.00,,OVC033,0.00,VWS V14.01,2013-01-13 08:42:00,
2013-01-13 02:47:00,5.3,1.3,30.07,NW,304,2.0,4.0,83,0.00,,OVC033,0.00,VWS V14.01,2013-01-13 08:47:00,
2013-01-13 02:52:00,5.2,1.2,30.07,WNW,300,0.0,4.0,83,0.00,,OVC031,0.00,VWS V14.01,2013-01-13 08:52:00,
2013-01-13 02:57:00,5.3,1.3,30.07,WNW,302,1.0,4.0,83,0.00,,OVC031,0.00,VWS V14.01,2013-01-13 08:57:00,
2013-01-13 03:02:00,5.3,1.5,30.07,WNW,290,1.0,3.0,84,0.00,,OVC031,0.00,VWS V14.01,2013-01-13 09:02:00,
2013-01-13 03:07:00,5.3,1.5,30.07,NW,309,1.0,3.0,84,0.00,,OVC031,0.00,VWS V14.01,2013-01-13 09:07:00,
2013-01-13 03:12:00,5.3,1.5,30.07,WNW,302,3.0,3.0,84,0.00,,OVC031,0.00,VWS V14.01,2013-01-13 09:12:00,
2013-01-13 03:17:00,5.2,1.4,30.07,WNW,295,1.0,4.0,84,0.00,,OVC031,0.00,VWS V14.01,2013-01-13 09:17:00,
2013-01-13 03:22:00,5.2,1.4,30.06,WNW,297,2.0,4.0,84,0.00,,OVC031,0.00,VWS V14.01,2013-01-13 09:22:00,
2013-01-13 03:27:00,5.2,1.4,30.07,NW,306,2.0,4.0,84,0.00,,OVC031,0.00,VWS V14.01,2013-01-13 09:27:00,
2013-01-13 03:32:00,5.1,1.3,30.07,WNW,298,1.0,2.0,84,0.00,,OVC031,0.00,VWS V14.01,2013-01-13 09:32:00,
2013-01-13 03:37:00,5.1,1.3,30.06,WNW,295,0.0,2.0,84,0.00,,OVC031,0.00,VWS V14.01,2013-01-13 09:37:00,
2013-01-13 03:42:00,5.0,1.5,30.06,NW,304,1.0,2.0,85,0.00,,OVC031,0.00,VWS V14.01,2013-01-13 09:42:00,
2013-01-13 03:47:00,5.0,1.5,30.06,WNW,290,1.0,3.0,85,0.00,,OVC031,0.00,VWS V14.01,2013-01-13 09:47:00,
2013-01-13 03:52:00,5.0,1.5,30.06,WNW,293,0.0,3.0,85,0.00,,BKN110,0.00,VWS V14.01,2013-01-13 09:52:00,
2013-01-13 03:57:00,4.9,1.4,30.06,NW,306,0.0,3.0,85,0.00,,BKN110,0.00,VWS V14.01,2013-01-13 09:57:00,
2013-01-13 04:02:00,4.8,1.3,30.06,WNW,295,0.0,1.0,85,0.00,,BKN110,0.00,VWS V14.01,2013-01-13 10:02:00,
2013-01-13 04:07:00,4.7,1.2,30.06,WNW,288,1.0,1.0,85,0.00,,BKN110,0.00,VWS V14.01,2013-01-13 10:07:00,
2013-01-13 04:12:00,4.7,1.2,30.06,WNW,295,1.0,2.0,85,0.00,,BKN110,0.00,VWS V14.01,2013-01-13 10:12:00,
2013-01-13 04:17:00,4.6,1.1,30.07,WNW,295,0.0,2.0,85,0.00,,BKN110,0.00,VWS V14.01,2013-01-13 10:17:00,
2013-01-13 04:22:00,4.5,1.2,30.07,WNW,288,0.0,2.0,86,0.00,,BKN110,0.00,VWS V14.01,2013-01-13 10:22:00,
2013-01-13 04:27:00,4.5,1.2,30.06,NW,304,1.0,2.0,86,0.00,,BKN110,0.00,VWS V14.01,2013-01-13 10:27:00,
2013-01-13 04:32:00,4.4,1.1,30.07,West,277,1.0,1.0,86,0.00,,BKN110,0.00,VWS V14.01,2013-01-13 10:32:00,
2013-01-13 04:37:00,4.3,1.0,30.07,West,278,0.0,2.0,86,0.00,,BKN110,0.00,VWS V14.01,2013-01-13 10:37:00,
2013-01-13 04:42:00,4.3,1.0,30.07,West,281,1.0,2.0,86,0.00,,BKN110,0.00,VWS V14.01,2013-01-13 10:42:00,
2013-01-13 04:47:00,4.2,0.9,30.07,WNW,295,1.0,3.0,86,0.00,,SCT110,0.00,VWS V14.01,2013-01-13 10:47:00,
2013-01-13 04:52:00,4.2,0.9,30.07,West,280,1.0,3.0,86,0.00,,SCT110,0.00,VWS V14.01,2013-01-13 10:52:00,
2013-01-13 04:57:00,4.1,0.9,30.07,WNW,290,1.0,3.0,86,0.00,,SCT110,0.00,VWS V14.01,2013-01-13 10:57:00,
2013-01-13 05:02:00,4.0,0.8,30.08,WNW,295,3.0,3.0,86,0.00,,SCT110,0.00,VWS V14.01,2013-01-13 11:02:00,
2013-01-13 05:07:00,4.0,0.8,30.08,West,281,2.0,3.0,86,0.00,,SCT110,0.00,VWS V14.01,2013-01-13 11:07:00,
2013-01-13 05:12:00,3.9,0.6,30.08,WNW,295,2.0,3.0,86,0.00,,SCT110,0.00,VWS V14.01,2013-01-13 11:12:00,
2013-01-13 05:17:00,3.8,0.6,30.07,WNW,295,2.0,3.0,86,0.00,,SCT110,0.00,VWS V14.01,2013-01-13 11:17:00,
2013-01-13 05:22:00,3.6,0.4,30.07,WNW,295,0.0,3.0,86,0.00,,SCT110,0.00,VWS V14.01,2013-01-13 11:22:00,
2013-01-13 05:27:00,3.5,0.3,30.08,West,281,0.0,3.0,86,0.00,,SCT110,0.00,VWS V14.01,2013-01-13 11:27:00,
2013-01-13 05:32:00,3.4,0.4,30.09,West,278,2.0,2.0,87,0.00,,BKN110,0.00,VWS V14.01,2013-01-13 11:32:00,
2013-01-13 05:37:00,3.3,0.3,30.09,WNW,293,2.0,3.0,87,0.00,,BKN110,0.00,VWS V14.01,2013-01-13 11:37:00,
2013-01-13 05:42:00,3.2,0.2,30.10,WNW,290,1.0,3.0,87,0.00,,BKN110,0.00,VWS V14.01,2013-01-13 11:42:00,
2013-01-13 05:47:00,3.1,0.1,30.10,West,276,2.0,4.0,87,0.00,,BKN110,0.00,VWS V14.01,2013-01-13 11:47:00,
2013-01-13 05:52:00,3.0,0.0,30.11,West,281,1.0,4.0,87,0.00,,BKN110,0.00,VWS V14.01,2013-01-13 11:52:00,
2013-01-13 05:57:00,2.9,-0.1,30.10,WNW,294,3.0,4.0,87,0.00,,BKN110,0.00,VWS V14.01,2013-01-13 11:57:00,
2013-01-13 06:02:00,2.8,-0.2,30.10,WNW,290,1.0,3.0,87,0.00,,BKN110,0.00,VWS V14.01,2013-01-13 12:02:00,
2013-01-13 06:07:00,2.6,-0.4,30.11,WNW,293,0.0,3.0,87,0.00,,BKN110,0.00,VWS V14.01,2013-01-13 12:07:00,
2013-01-13 06:12:00,2.4,-0.6,30.11,WNW,293,0.0,3.0,87,0.00,,BKN110,0.00,VWS V14.01,2013-01-13 12:12:00,
2013-01-13 06:17:00,2.4,-0.6,30.11,WNW,295,1.0,3.0,87,0.00,,BKN110,0.00,VWS V14.01,2013-01-13 12:17:00,
2013-01-13 06:22:00,2.2,-0.8,30.11,WNW,300,1.0,3.0,87,0.00,,BKN110,0.00,VWS V14.01,2013-01-13 12:22:00,
2013-01-13 06:27:00,2.2,-0.8,30.11,WNW,302,1.0,3.0,87,0.00,,BKN110,0.00,VWS V14.01,2013-01-13 12:27:00,
2013-01-13 06:32:00,2.1,-0.9,30.11,WNW,297,1.0,2.0,87,0.00,,SCT110,0.00,VWS V14.01,2013-01-13 12:32:00,
2013-01-13 06:37:00,2.0,-1.0,30.11,WNW,298,2.0,3.0,87,0.00,,SCT110,0.00,VWS V14.01,2013-01-13 12:37:00,
2013-01-13 06:42:00,1.9,-1.1,30.11,NW,308,1.0,3.0,87,0.00,,SCT110,0.00,VWS V14.01,2013-01-13 12:42:00,
2013-01-13 06:47:00,1.9,-1.1,30.12,WNW,295,1.0,3.0,87,0.00,,SCT110,0.00,VWS V14.01,2013-01-13 12:47:00,
2013-01-13 06:52:00,1.9,-1.1,30.12,WNW,298,1.0,3.0,87,0.00,,BKN110,0.00,VWS V14.01,2013-01-13 12:52:00,
2013-01-13 06:57:00,1.8,-1.2,30.13,WNW,291,2.0,3.0,87,0.00,,BKN110,0.00,VWS V14.01,2013-01-13 12:57:00,
2013-01-13 07:02:00,1.8,-1.2,30.13,WNW,293,1.0,3.0,87,0.00,,BKN110,0.00,VWS V14.01,2013-01-13 13:02:00,
2013-01-13 07:07:00,1.8,-1.2,30.13,WNW,290,1.0,3.0,87,0.00,,BKN110,0.00,VWS V14.01,2013-01-13 13:07:00,
2013-01-13 07:12:00,1.7,-1.3,30.13,NW,312,1.0,3.0,87,0.00,,BKN110,0.00,VWS V14.01,2013-01-13 13:12:00,
2013-01-13 07:17:00,1.7,-1.3,30.13,WNW,291,1.0,3.0,87,0.00,,BKN110,0.00,VWS V14.01,2013-01-13 13:17:00,
2013-01-13 07:22:00,1.6,-1.4,30.14,WNW,292,2.0,3.0,87,0.00,,BKN110,0.00,VWS V14.01,2013-01-13 13:22:00,
2013-01-13 07:27:00,1.6,-1.4,30.14,WNW,283,1.0,3.0,87,0.00,,BKN110,0.00,VWS V14.01,2013-01-13 13:27:00,
2013-01-13 07:32:00,1.5,-1.5,30.14,WNW,295,0.0,1.0,87,0.00,,BKN110,0.00,VWS V14.01,2013-01-13 13:32:00,
2013-01-13 07:37:00,1.5,-1.5,30.14,WNW,297,1.0,2.0,87,0.00,,BKN110,0.00,VWS V14.01,2013-01-13 13:37:00,
2013-01-13 07:42:00,1.5,-1.5,30.14,WNW,293,1.0,3.0,87,0.00,,BKN110,0.00,VWS V14.01,2013-01-13 13:42:00,
2013-01-13 07:47:00,1.5,-1.5,30.16,West,273,2.0,4.0,87,0.00,,BKN110,0.00,VWS V14.01,2013-01-13 13:47:00,
2013-01-13 07:52:00,1.4,-1.6,30.16,WNW,290,1.0,4.0,87,0.00,,SCT110,0.00,VWS V14.01,2013-01-13 13:52:00,
2013-01-13 07:57:00,1.4,-1.8,30.16,WNW,287,2.0,4.0,86,0.00,,SCT110,0.00,VWS V14.01,2013-01-13 13:57:00,
2013-01-13 08:02:00,1.4,-1.8,30.16,West,277,0.0,2.0,86,0.00,,SCT110,0.00,VWS V14.01,2013-01-13 14:02:00,
2013-01-13 08:07:00,1.4,-1.8,30.16,WNW,294,0.0,2.0,86,0.00,,SCT110,0.00,VWS V14.01,2013-01-13 14:07:00,
2013-01-13 08:12:00,1.5,-1.7,30.16,WNW,297,1.0,3.0,86,0.00,,SCT110,0.00,VWS V14.01,2013-01-13 14:12:00,
2013-01-13 08:17:00,1.6,-1.6,30.17,WNW,285,0.0,3.0,86,0.00,,SCT110,0.00,VWS V14.01,2013-01-13 14:17:00,
2013-01-13 08:22:00,1.8,-1.4,30.17,WNW,302,2.0,4.0,86,0.00,,SCT110,0.00,VWS V14.01,2013-01-13 14:22:00,
2013-01-13 08:27:00,2.1,-1.1,30.17,WNW,284,2.0,4.0,86,0.00,,SCT110,0.00,VWS V14.01,2013-01-13 14:27:00,
2013-01-13 08:32:00,2.3,-0.9,30.17,NW,305,1.0,3.0,86,0.00,,SCT110,0.00,VWS V14.01,2013-01-13 14:32:00,
2013-01-13 08:37:00,2.5,-1.0,30.17,WNW,302,0.0,4.0,85,0.00,,SCT110,0.00,VWS V14.01,2013-01-13 14:37:00,
2013-01-13 08:42:00,2.8,-0.7,30.17,WNW,302,2.0,4.0,85,0.00,,SCT110,0.00,VWS V14.01,2013-01-13 14:42:00,
2013-01-13 08:47:00,2.9,-0.6,30.18,WNW,300,2.0,4.0,85,0.00,,SCT110,0.00,VWS V14.01,2013-01-13 14:47:00,
2013-01-13 08:52:00,3.0,-0.5,30.18,WNW,285,1.0,4.0,85,0.00,,OVC070,0.00,VWS V14.01,2013-01-13 14:52:00,
2013-01-13 08:57:00,3.1,-0.4,30.18,West,275,0.0,4.0,85,0.00,,OVC070,0.00,VWS V14.01,2013-01-13 14:57:00,
2013-01-13 09:02:00,3.2,-0.5,30.18,West,281,3.0,4.0,84,0.00,,OVC070,0.00,VWS V14.01,2013-01-13 15:02:00,
2013-01-13 09:07:00,3.2,-0.5,30.18,WNW,298,2.0,4.0,84,0.00,,OVC070,0.00,VWS V14.01,2013-01-13 15:07:00,
2013-01-13 09:12:00,3.3,-0.4,30.18,NW,313,2.0,4.0,84,0.00,,OVC070,0.00,VWS V14.01,2013-01-13 15:12:00,
2013-01-13 09:17:00,3.3,-0.4,30.18,West,281,1.0,4.0,84,0.00,,OVC070,0.00,VWS V14.01,2013-01-13 15:17:00,
2013-01-13 09:22:00,3.5,-0.2,30.18,WNW,298,2.0,4.0,84,0.00,,OVC070,0.00,VWS V14.01,2013-01-13 15:22:00,
2013-01-13 09:27:00,3.5,-0.5,30.18,NW,308,0.0,4.0,83,0.00,,OVC070,0.00,VWS V14.01,2013-01-13 15:27:00,
2013-01-13 09:32:00,3.7,0.0,30.18,WNW,284,4.0,5.0,84,0.00,,OVC070,0.00,VWS V14.01,2013-01-13 15:32:00,
2013-01-13 09:37:00,3.7,0.0,30.18,NNW,330,0.0,5.0,84,0.00,,OVC070,0.00,VWS V14.01,2013-01-13 15:37:00,
2013-01-13 09:42:00,3.9,0.2,30.18,NNW,335,2.0,5.0,84,0.00,,OVC070,0.00,VWS V14.01,2013-01-13 15:42:00,
2013-01-13 09:47:00,3.9,-0.1,30.18,WNW,295,3.0,5.0,83,0.00,,OVC070,0.00,VWS V14.01,2013-01-13 15:47:00,
2013-01-13 09:52:00,3.9,-0.1,30.18,NW,309,1.0,5.0,83,0.00,,OVC080,0.00,VWS V14.01,2013-01-13 15:52:00,
2013-01-13 09:57:00,3.8,-0.2,30.18,West,262,2.0,5.0,83,0.00,,OVC080,0.00,VWS V14.01,2013-01-13 15:57:00,
2013-01-13 10:02:00,3.9,-0.1,30.18,WNW,302,2.0,3.0,83,0.00,,OVC080,0.00,VWS V14.01,2013-01-13 16:02:00,
2013-01-13 10:07:00,3.9,-0.1,30.18,West,273,1.0,4.0,83,0.00,,OVC080,0.00,VWS V14.01,2013-01-13 16:07:00,
2013-01-13 10:12:00,3.8,-0.2,30.18,WNW,291,1.0,5.0,83,0.00,,OVC080,0.00,VWS V14.01,2013-01-13 16:12:00,
2013-01-13 10:17:00,4.1,0.1,30.18,WNW,291,2.0,5.0,83,0.00,,OVC070,0.00,VWS V14.01,2013-01-13 16:17:00,
2013-01-13 10:22:00,4.0,0.0,30.18,WNW,299,3.0,5.0,83,0.00,,OVC080,0.00,VWS V14.01,2013-01-13 16:22:00,
2013-01-13 10:27:00,4.0,0.0,30.18,WNW,302,0.0,5.0,83,0.00,,OVC080,0.00,VWS V14.01,2013-01-13 16:27:00,
2013-01-13 10:32:00,4.1,0.1,30.17,WNW,302,2.0,4.0,83,0.00,,OVC100,0.00,VWS V14.01,2013-01-13 16:32:00,
2013-01-13 10:37:00,4.1,0.1,30.17,West,278,2.0,5.0,83,0.00,,OVC100,0.00,VWS V14.01,2013-01-13 16:37:00,
2013-01-13 10:42:00,4.1,0.1,30.17,WNW,297,2.0,5.0,83,0.00,,OVC100,0.00,VWS V14.01,2013-01-13 16:42:00,
2013-01-13 10:47:00,4.2,0.2,30.16,WNW,302,1.0,5.0,83,0.00,,OVC100,0.00,VWS V14.01,2013-01-13 16:47:00,
2013-01-13 10:52:00,4.3,0.3,30.16,WNW,300,3.0,5.0,83,0.00,,OVC050,0.00,VWS V14.01,2013-01-13 16:52:00,
2013-01-13 10:57:00,4.6,0.6,30.16,West,273,2.0,5.0,83,0.00,,OVC050,0.00,VWS V14.01,2013-01-13 16:57:00,
2013-01-13 11:02:00,4.7,0.7,30.15,WNW,295,3.0,5.0,83,0.00,,OVC050,0.00,VWS V14.01,2013-01-13 17:02:00,
2013-01-13 11:07:00,4.7,0.7,30.15,WNW,287,3.0,5.0,83,0.00,,OVC050,0.00,VWS V14.01,2013-01-13 17:07:00,
2013-01-13 11:12:00,4.7,0.4,30.15,WNW,300,3.0,5.0,82,0.00,,OVC050,0.00,VWS V14.01,2013-01-13 17:12:00,
2013-01-13 11:17:00,4.8,0.8,30.14,West,276,1.0,5.0,83,0.00,,OVC050,0.00,VWS V14.01,2013-01-13 17:17:00,
2013-01-13 11:22:00,4.9,0.9,30.14,WNW,285,1.0,5.0,83,0.00,,OVC050,0.00,VWS V14.01,2013-01-13 17:22:00,
2013-01-13 11:27:00,5.0,1.0,30.14,WNW,295,1.0,5.0,83,0.00,,OVC050,0.00,VWS V14.01,2013-01-13 17:27:00,
2013-01-13 11:32:00,5.3,1.3,30.14,WNW,297,1.0,4.0,83,0.00,,OVC047,0.00,VWS V14.01,2013-01-13 17:32:00,
2013-01-13 11:37:00,5.4,1.4,30.13,WNW,288,3.0,4.0,83,0.00,,OVC047,0.00,VWS V14.01,2013-01-13 17:37:00,
2013-01-13 11:42:00,5.5,1.5,30.13,NW,306,1.0,5.0,83,0.00,,OVC047,0.00,VWS V14.01,2013-01-13 17:42:00,
2013-01-13 11:47:00,5.6,1.6,30.13,NW,309,1.0,5.0,83,0.00,,OVC050,0.00,VWS V14.01,2013-01-13 17:47:00,
2013-01-13 11:52:00,5.7,1.7,30.12,WNW,286,1.0,5.0,83,0.00,,OVC038,0.00,VWS V14.01,2013-01-13 17:52:00,
2013-01-13 11:57:00,5.8,1.5,30.12,WNW,297,2.0,5.0,82,0.00,,OVC038,0.00,VWS V14.01,2013-01-13 17:57:00,
2013-01-13 12:02:00,5.8,1.5,30.12,WNW,286,2.0,4.0,82,0.00,,OVC038,0.00,VWS V14.01,2013-01-13 18:02:00,
2013-01-13 12:07:00,5.6,1.3,30.12,WNW,293,2.0,6.0,82,0.00,,OVC038,0.00,VWS V14.01,2013-01-13 18:07:00,
2013-01-13 12:12:00,5.6,1.3,30.12,WNW,302,2.0,6.0,82,0.00,,OVC038,0.00,VWS V14.01,2013-01-13 18:12:00,
2013-01-13 12:17:00,5.7,1.4,30.12,WNW,291,1.0,6.0,82,0.00,,OVC038,0.00,VWS V14.01,2013-01-13 18:17:00,
2013-01-13 12:22:00,5.6,1.3,30.12,West,281,3.0,6.0,82,0.00,,OVC038,0.00,VWS V14.01,2013-01-13 18:22:00,
2013-01-13 12:27:00,5.6,1.3,30.12,West,280,3.0,6.0,82,0.00,,OVC038,0.00,VWS V14.01,2013-01-13 18:27:00,
2013-01-13 12:32:00,5.6,1.3,30.12,West,280,2.0,6.0,82,0.00,,OVC032,0.00,VWS V14.01,2013-01-13 18:32:00,
2013-01-13 12:37:00,5.7,1.4,30.12,West,278,2.0,6.0,82,0.00,,OVC032,0.00,VWS V14.01,2013-01-13 18:37:00,
2013-01-13 12:42:00,5.7,1.4,30.12,WNW,295,3.0,6.0,82,0.00,,OVC032,0.00,VWS V14.01,2013-01-13 18:42:00,
2013-01-13 12:47:00,5.6,1.0,30.12,WNW,295,2.0,6.0,81,0.00,,OVC032,0.00,VWS V14.01,2013-01-13 18:47:00,
2013-01-13 12:52:00,5.8,1.2,30.12,NW,304,3.0,6.0,81,0.00,,OVC033,0.00,VWS V14.01,2013-01-13 18:52:00,
2013-01-13 12:57:00,5.7,0.9,30.12,WNW,282,2.0,6.0,80,0.00,,OVC033,0.00,VWS V14.01,2013-01-13 18:57:00,
2013-01-13 13:02:00,5.8,1.2,30.12,WNW,285,6.0,7.0,81,0.00,,OVC033,0.00,VWS V14.01,2013-01-13 19:02:00,
2013-01-13 13:07:00,5.5,0.9,30.13,West,273,4.0,8.0,81,0.00,,OVC033,0.00,VWS V14.01,2013-01-13 19:07:00,
2013-01-13 13:12:00,5.3,0.8,30.12,West,277,5.0,9.0,81,0.00,,OVC033,0.00,VWS V14.01,2013-01-13 19:12:00,
2013-01-13 13:17:00,5.4,0.9,30.12,West,273,5.0,9.0,81,0.00,,OVC033,0.00,VWS V14.01,2013-01-13 19:17:00,
2013-01-13 13:22:00,5.4,0.9,30.12,WNW,284,3.0,9.0,81,0.00,,OVC033,0.00,VWS V14.01,2013-01-13 19:22:00,
2013-01-13 13:27:00,5.4,0.9,30.13,West,273,4.0,9.0,81,0.00,,OVC033,0.00,VWS V14.01,2013-01-13 19:27:00,
2013-01-13 13:32:00,5.4,0.9,30.13,WNW,286,4.0,6.0,81,0.00,,OVC035,0.00,VWS V14.01,2013-01-13 19:32:00,
2013-01-13 13:37:00,5.4,0.9,30.13,West,280,3.0,6.0,81,0.00,,OVC035,0.00,VWS V14.01,2013-01-13 19:37:00,
2013-01-13 13:42:00,5.6,1.3,30.13,West,270,4.0,7.0,82,0.00,,OVC035,0.00,VWS V14.01,2013-01-13 19:42:00,
2013-01-13 13:47:00,5.7,1.4,30.13,West,274,4.0,7.0,82,0.00,,OVC035,0.00,VWS V14.01,2013-01-13 19:47:00,
2013-01-13 13:52:00,5.6,1.0,30.13,West,266,4.0,8.0,81,0.00,,OVC046,0.00,VWS V14.01,2013-01-13 19:52:00,
2013-01-13 13:57:00,5.7,1.4,30.13,West,271,5.0,8.0,82,0.00,,OVC046,0.00,VWS V14.01,2013-01-13 19:57:00,
2013-01-13 14:02:00,5.7,1.4,30.13,West,259,4.0,6.0,82,0.00,,OVC046,0.00,VWS V14.01,2013-01-13 20:02:00,
2013-01-13 14:07:00,5.8,1.5,30.13,West,271,5.0,6.0,82,0.00,,OVC046,0.00,VWS V14.01,2013-01-13 20:07:00,
2013-01-13 14:12:00,6.0,1.7,30.13,West,269,2.0,6.0,82,0.00,,OVC046,0.00,VWS V14.01,2013-01-13 20:12:00,
2013-01-13 14:17:00,6.0,1.7,30.14,WNW,297,3.0,6.0,82,0.00,,OVC046,0.00,VWS V14.01,2013-01-13 20:17:00,
2013-01-13 14:22:00,6.1,1.8,30.14,West,270,5.0,10.0,82,0.00,,OVC046,0.00,VWS V14.01,2013-01-13 20:22:00,
2013-01-13 14:27:00,6.1,1.8,30.14,West,281,4.0,10.0,82,0.00,,OVC046,0.00,VWS V14.01,2013-01-13 20:27:00,
2013-01-13 14:32:00,6.2,1.9,30.14,West,274,3.0,8.0,82,0.00,,OVC029,0.00,VWS V14.01,2013-01-13 20:32:00,
2013-01-13 14:37:00,6.3,2.0,30.14,WNW,284,3.0,8.0,82,0.00,,OVC029,0.00,VWS V14.01,2013-01-13 20:37:00,
2013-01-13 14:42:00,6.3,1.7,30.15,West,280,4.0,8.0,81,0.00,,OVC029,0.00,VWS V14.01,2013-01-13 20:42:00,
2013-01-13 14:47:00,6.3,1.7,30.15,West,273,5.0,8.0,81,0.00,,OVC029,0.00,VWS V14.01,2013-01-13 20:47:00,
2013-01-13 14:52:00,6.3,1.7,30.15,West,281,2.0,8.0,81,0.00,,OVC024,0.00,VWS V14.01,2013-01-13 20:52:00,
2013-01-13 14:57:00,6.2,1.6,30.15,WSW,257,8.0,9.0,81,0.00,,OVC024,0.00,VWS V14.01,2013-01-13 20:57:00,
2013-01-13 15:02:00,6.2,1.9,30.16,West,278,6.0,8.0,82,0.00,,OVC024,0.00,VWS V14.01,2013-01-13 21:02:00,
2013-01-13 15:07:00,6.2,2.2,30.16,WSW,239,6.0,8.0,83,0.00,,OVC024,0.00,VWS V14.01,2013-01-13 21:07:00,
2013-01-13 15:12:00,6.1,2.1,30.16,West,281,2.0,8.0,83,0.00,,OVC024,0.00,VWS V14.01,2013-01-13 21:12:00,
2013-01-13 15:17:00,6.1,2.1,30.16,WNW,300,6.0,8.0,83,0.00,,OVC024,0.00,VWS V14.01,2013-01-13 21:17:00,
2013-01-13 15:22:00,6.0,2.0,30.16,WSW,245,4.0,8.0,83,0.00,,OVC024,0.00,VWS V14.01,2013-01-13 21:22:00,
2013-01-13 15:27:00,6.1,2.3,30.17,WNW,289,3.0,9.0,84,0.00,,OVC024,0.00,VWS V14.01,2013-01-13 21:27:00,
2013-01-13 15:32:00,6.1,2.3,30.17,West,271,5.0,10.0,84,0.00,,OVC039,0.00,VWS V14.01,2013-01-13 21:32:00,
2013-01-13 15:37:00,6.1,2.6,30.17,West,271,4.0,10.0,85,0.00,,OVC039,0.00,VWS V14.01,2013-01-13 21:37:00,
2013-01-13 15:42:00,6.1,2.3,30.17,West,270,5.0,10.0,84,0.00,,OVC039,0.00,VWS V14.01,2013-01-13 21:42:00,
2013-01-13 15:47:00,6.0,2.2,30.17,West,270,4.0,10.0,84,0.00,,OVC039,0.00,VWS V14.01,2013-01-13 21:47:00,
2013-01-13 15:52:00,6.0,2.2,30.17,West,278,7.0,10.0,84,0.00,,OVC041,0.00,VWS V14.01,2013-01-13 21:52:00,
2013-01-13 15:57:00,6.0,2.2,30.17,West,270,7.0,10.0,84,0.00,,OVC041,0.00,VWS V14.01,2013-01-13 21:57:00,
2013-01-13 16:02:00,6.0,2.0,30.17,WNW,302,6.0,9.0,83,0.00,,OVC041,0.00,VWS V14.01,2013-01-13 22:02:00,
2013-01-13 16:07:00,6.1,2.1,30.17,WNW,287,2.0,9.0,83,0.00,,OVC041,0.00,VWS V14.01,2013-01-13 22:07:00,
2013-01-13 16:12:00,6.1,2.1,30.17,West,273,7.0,10.0,83,0.00,,OVC041,0.00,VWS V14.01,2013-01-13 22:12:00,
2013-01-13 16:17:00,6.0,2.0,30.17,WSW,241,4.0,11.0,83,0.00,,OVC041,0.00,VWS V14.01,2013-01-13 22:17:00,
2013-01-13 16:22:00,6.0,2.2,30.18,West,281,5.0,11.0,84,0.00,,OVC041,0.00,VWS V14.01,2013-01-13 22:22:00,
2013-01-13 16:27:00,6.0,2.2,30.18,West,262,4.0,11.0,84,0.00,,OVC041,0.00,VWS V14.01,2013-01-13 22:27:00,
2013-01-13 16:32:00,6.1,2.3,30.18,West,275,7.0,8.0,84,0.00,,OVC041,0.00,VWS V14.01,2013-01-13 22:32:00,
2013-01-13 16:37:00,6.1,2.3,30.18,WSW,255,6.0,10.0,84,0.00,,OVC055,0.00,VWS V14.01,2013-01-13 22:37:00,
2013-01-13 16:42:00,6.0,2.0,30.18,West,266,6.0,10.0,83,0.00,,OVC055,0.00,VWS V14.01,2013-01-13 22:42:00,
2013-01-13 16:47:00,6.1,2.1,30.18,West,262,7.0,10.0,83,0.00,,OVC055,0.00,VWS V14.01,2013-01-13 22:47:00,
2013-01-13 16:52:00,6.1,1.8,30.18,West,277,6.0,10.0,82,0.00,,OVC080,0.00,VWS V14.01,2013-01-13 22:52:00,
2013-01-13 16:57:00,6.2,1.9,30.18,West,277,4.0,10.0,82,0.00,,OVC080,0.00,VWS V14.01,2013-01-13 22:57:00,
2013-01-13 17:02:00,6.2,1.9,30.18,WNW,295,4.0,7.0,82,0.00,,OVC080,0.00,VWS V14.01,2013-01-13 23:02:00,
2013-01-13 17:07:00,6.2,1.9,30.18,WNW,298,6.0,8.0,82,0.00,,OVC080,0.00,VWS V14.01,2013-01-13 23:07:00,
2013-01-13 17:12:00,6.1,1.5,30.19,WNW,284,7.0,8.0,81,0.00,,OVC080,0.00,VWS V14.01,2013-01-13 23:12:00,
2013-01-13 17:17:00,6.0,1.4,30.19,West,279,5.0,8.0,81,0.00,,OVC080,0.00,VWS V14.01,2013-01-13 23:17:00,
2013-01-13 17:22:00,5.8,1.2,30.19,WNW,285,6.0,9.0,81,0.00,,OVC080,0.00,VWS V14.01,2013-01-13 23:22:00,
2013-01-13 17:27:00,5.7,1.1,30.19,WNW,284,5.0,11.0,81,0.00,,OVC080,0.00,VWS V14.01,2013-01-13 23:27:00,
2013-01-13 17:32:00,5.5,0.9,30.19,West,271,4.0,7.0,81,0.00,,OVC080,0.00,VWS V14.01,2013-01-13 23:32:00,
2013-01-13 17:37:00,5.4,0.9,30.20,West,277,5.0,8.0,81,0.00,,BKN110,0.00,VWS V14.01,2013-01-13 23:37:00,
2013-01-13 17:42:00,5.3,0.8,30.19,West,267,6.0,8.0,81,0.00,,BKN110,0.00,VWS V14.01,2013-01-13 23:42:00,
2013-01-13 17:47:00,5.2,0.6,30.19,West,267,4.0,8.0,81,0.00,,BKN110,0.00,VWS V14.01,2013-01-13 23:47:00,
2013-01-13 17:52:00,5.1,0.8,30.19,WNW,285,5.0,8.0,82,0.00,,CLR,0.00,VWS V14.01,2013-01-13 23:52:00,
2013-01-13 17:57:00,5.0,0.7,30.19,WNW,290,3.0,8.0,82,0.00,,CLR,0.00,VWS V14.01,2013-01-13 23:57:00,
2013-01-13 18:02:00,5.0,0.7,30.19,WNW,301,4.0,6.0,82,0.00,,CLR,0.00,VWS V14.01,2013-01-14 00:02:00,
2013-01-13 18:07:00,5.0,0.7,30.20,WNW,287,6.0,7.0,82,0.00,,SCT120,0.00,VWS V14.01,2013-01-14 00:07:00,
2013-01-13 18:12:00,5.0,0.7,30.20,West,281,4.0,8.0,82,0.00,,SCT120,0.00,VWS V14.01,2013-01-14 00:12:00,
2013-01-13 18:17:00,5.0,0.7,30.20,WNW,290,3.0,8.0,82,0.00,,SCT120,0.00,VWS V14.01,2013-01-14 00:17:00,
2013-01-13 18:22:00,5.0,0.7,30.20,West,274,4.0,9.0,82,0.00,,SCT120,0.00,VWS V14.01,2013-01-14 00:22:00,
2013-01-13 18:27:00,4.9,0.4,30.20,West,278,4.0,9.0,81,0.00,,SCT120,0.00,VWS V14.01,2013-01-14 00:27:00,
2013-01-13 18:32:00,4.9,0.4,30.20,WNW,282,4.0,8.0,81,0.00,,SCT120,0.00,VWS V14.01,2013-01-14 00:32:00,
2013-01-13 18:37:00,4.8,0.3,30.20,West,281,4.0,8.0,81,0.00,,BKN110,0.00,VWS V14.01,2013-01-14 00:37:00,
2013-01-13 18:42:00,4.7,0.2,30.20,West,281,2.0,8.0,81,0.00,,BKN110,0.00,VWS V14.01,2013-01-14 00:42:00,
2013-01-13 18:47:00,4.7,0.2,30.20,WNW,284,5.0,8.0,81,0.00,,BKN110,0.00,VWS V14.01,2013-01-14 00:47:00,
2013-01-13 18:52:00,4.7,0.2,30.20,West,281,2.0,8.0,81,0.00,,BKN120,0.00,VWS V14.01,2013-01-14 00:52:00,
2013-01-13 18:57:00,4.7,0.2,30.21,West,266,4.0,8.0,81,0.00,,BKN120,0.00,VWS V14.01,2013-01-14 00:57:00,
2013-01-13 19:02:00,4.6,0.1,30.21,West,277,4.0,6.0,81,0.00,,BKN120,0.00,VWS V14.01,2013-01-14 01:02:00,
2013-01-13 19:07:00,4.5,0.0,30.21,WNW,284,3.0,6.0,81,0.00,,BKN120,0.00,VWS V14.01,2013-01-14 01:07:00,
2013-01-13 19:12:00,4.4,-0.1,30.21,West,281,3.0,6.0,81,0.00,,BKN120,0.00,VWS V14.01,2013-01-14 01:12:00,
2013-01-13 19:17:00,4.5,0.0,30.21,West,272,4.0,7.0,81,0.00,,BKN120,0.00,VWS V14.01,2013-01-14 01:17:00,
2013-01-13 19:22:00,4.5,0.0,30.21,West,259,5.0,7.0,81,0.00,,BKN120,0.00,VWS V14.01,2013-01-14 01:22:00,
2013-01-13 19:27:00,4.5,0.0,30.21,West,266,3.0,7.0,81,0.00,,BKN120,0.00,VWS V14.01,2013-01-14 01:27:00,
2013-01-13 19:32:00,4.5,0.0,30.21,West,273,4.0,6.0,81,0.00,,BKN120,0.00,VWS V14.01,2013-01-14 01:32:00,
2013-01-13 19:37:00,4.6,0.1,30.21,WSW,255,3.0,7.0,81,0.00,,BKN120,0.00,VWS V14.01,2013-01-14 01:37:00,
2013-01-13 19:42:00,4.5,0.0,30.21,West,270,5.0,7.0,81,0.00,,BKN120,0.00,VWS V14.01,2013-01-14 01:42:00,
2013-01-13 19:47:00,4.4,-0.1,30.22,West,273,3.0,7.0,81,0.00,,BKN120,0.00,VWS V14.01,2013-01-14 01:47:00,
2013-01-13 19:52:00,4.2,-0.1,30.22,West,263,3.0,7.0,82,0.00,,SCT120,0.00,VWS V14.01,2013-01-14 01:52:00,
2013-01-13 19:57:00,4.0,-0.3,30.22,West,266,3.0,7.0,82,0.00,,SCT120,0.00,VWS V14.01,2013-01-14 01:57:00,
2013-01-13 20:02:00,3.9,-0.4,30.22,West,264,3.0,5.0,82,0.00,,SCT120,0.00,VWS V14.01,2013-01-14 02:02:00,
2013-01-13 20:07:00,3.7,-0.3,30.23,West,263,2.0,5.0,83,0.00,,SCT120,0.00,VWS V14.01,2013-01-14 02:07:00,
2013-01-13 20:12:00,3.7,-0.3,30.22,WSW,250,2.0,5.0,83,0.00,,SCT120,0.00,VWS V14.01,2013-01-14 02:12:00,
2013-01-13 20:17:00,3.7,-0.3,30.23,West,266,3.0,5.0,83,0.00,,SCT120,0.00,VWS V14.01,2013-01-14 02:17:00,
2013-01-13 20:22:00,3.6,-0.4,30.23,West,259,2.0,5.0,83,0.00,,SCT120,0.00,VWS V14.01,2013-01-14 02:22:00,
2013-01-13 20:27:00,3.6,-0.4,30.23,West,259,2.0,5.0,83,0.00,,SCT120,0.00,VWS V14.01,2013-01-14 02:27:00,
2013-01-13 20:32:00,3.5,-0.2,30.23,West,260,3.0,5.0,84,0.00,,SCT120,0.00,VWS V14.01,2013-01-14 02:32:00,
2013-01-13 20:37:00,3.6,-0.1,30.23,West,264,4.0,6.0,84,0.00,,BKN120,0.00,VWS V14.01,2013-01-14 02:37:00,
2013-01-13 20:42:00,3.6,-0.1,30.23,West,276,5.0,6.0,84,0.00,,BKN120,0.00,VWS V14.01,2013-01-14 02:42:00,
2013-01-13 20:47:00,3.6,-0.1,30.23,West,259,3.0,6.0,84,0.00,,BKN120,0.00,VWS V14.01,2013-01-14 02:47:00,
2013-01-13 20:52:00,3.6,-0.1,30.24,West,260,4.0,6.0,84,0.00,,SCT120,0.00,VWS V14.01,2013-01-14 02:52:00,
2013-01-13 20:57:00,3.6,-0.1,30.24,West,264,3.0,7.0,84,0.00,,SCT120,0.00,VWS V14.01,2013-01-14 02:57:00,
2013-01-13 21:02:00,3.6,-0.1,30.24,West,271,6.0,6.0,84,0.00,,SCT120,0.00,VWS V14.01,2013-01-14 03:02:00,
2013-01-13 21:07:00,3.5,-0.2,30.24,West,268,3.0,6.0,84,0.00,,SCT120,0.00,VWS V14.01,2013-01-14 03:07:00,
2013-01-13 21:12:00,3.4,-0.3,30.24,WSW,245,3.0,6.0,84,0.00,,SCT120,0.00,VWS V14.01,2013-01-14 03:12:00,
2013-01-13 21:17:00,3.5,0.0,30.24,West,267,3.0,6.0,85,0.00,,SCT120,0.00,VWS V14.01,2013-01-14 03:17:00,
2013-01-13 21:22:00,3.6,0.1,30.24,WSW,253,3.0,7.0,85,0.00,,SCT120,0.00,VWS V14.01,2013-01-14 03:22:00,
2013-01-13 21:27:00,3.7,0.2,30.24,WSW,252,4.0,7.0,85,0.00,,SCT120,0.00,VWS V14.01,2013-01-14 03:27:00,
2013-01-13 21:32:00,3.6,0.1,30.24,West,277,4.0,7.0,85,0.00,,SCT120,0.00,VWS V14.01,2013-01-14 03:32:00,
2013-01-13 21:37:00,3.6,0.1,30.24,West,277,4.0,7.0,85,0.00,,BKN095,0.00,VWS V14.01,2013-01-14 03:37:00,
2013-01-13 21:42:00,3.5,0.0,30.24,West,269,3.0,7.0,85,0.00,,BKN095,0.00,VWS V14.01,2013-01-14 03:42:00,
2013-01-13 21:47:00,3.3,-0.2,30.24,WSW,248,4.0,7.0,85,0.00,,BKN095,0.00,VWS V14.01,2013-01-14 03:47:00,
2013-01-13 21:52:00,3.3,-0.2,30.24,WSW,255,4.0,7.0,85,0.00,,OVC095,0.00,VWS V14.01,2013-01-14 03:52:00,
2013-01-13 21:57:00,3.2,-0.3,30.24,WSW,243,3.0,7.0,85,0.00,,OVC095,0.00,VWS V14.01,2013-01-14 03:57:00,
2013-01-13 22:02:00,3.1,-0.4,30.24,SW,230,3.0,4.0,85,0.00,,OVC095,0.00,VWS V14.01,2013-01-14 04:02:00,
2013-01-13 22:07:00,3.1,-0.4,30.24,WSW,246,3.0,4.0,85,0.00,,OVC095,0.00,VWS V14.01,2013-01-14 04:07:00,
2013-01-13 22:12:00,2.9,-0.6,30.25,WSW,246,1.0,4.0,85,0.00,,OVC095,0.00,VWS V14.01,2013-01-14 04:12:00,
2013-01-13 22:17:00,2.8,-0.7,30.25,WSW,245,0.0,4.0,85,0.00,,OVC095,0.00,VWS V14.01,2013-01-14 04:17:00,
2013-01-13 22:22:00,2.5,-0.7,30.25,WSW,238,0.0,4.0,86,0.00,,OVC095,0.00,VWS V14.01,2013-01-14 04:22:00,
2013-01-13 22:27:00,2.5,-0.7,30.25,SW,235,1.0,4.0,86,0.00,,OVC095,0.00,VWS V14.01,2013-01-14 04:27:00,
2013-01-13 22:31:00,2.5,-0.7,30.25,WSW,239,1.0,1.0,86,0.00,,OVC095,0.00,VWS V14.01,2013-01-14 04:31:00,
2013-01-13 22:36:00,2.4,-0.8,30.25,West,266,3.0,3.0,86,0.00,,BKN110,0.00,VWS V14.01,2013-01-14 04:36:00,
2013-01-13 22:41:00,2.3,-0.9,30.25,WSW,245,4.0,4.0,86,0.00,,BKN110,0.00,VWS V14.01,2013-01-14 04:41:00,
2013-01-13 22:46:00,2.4,-0.6,30.25,WSW,255,2.0,4.0,87,0.00,,BKN110,0.00,VWS V14.01,2013-01-14 04:46:00,
2013-01-13 22:51:00,2.5,-0.7,30.26,West,262,3.0,4.0,86,0.00,,SCT110,0.00,VWS V14.01,2013-01-14 04:51:00,
2013-01-13 22:56:00,2.6,-0.4,30.26,WSW,255,2.0,5.0,87,0.00,,SCT110,0.00,VWS V14.01,2013-01-14 04:56:00,
2013-01-13 23:00:00,2.7,-0.5,30.26,West,262,2.0,3.0,86,0.00,,SCT110,0.00,VWS V14.01,2013-01-14 05:00:00,
2013-01-13 23:01:00,2.7,-0.5,30.26,West,259,1.0,3.0,86,0.00,,SCT110,0.00,VWS V14.01,2013-01-14 05:01:00,
2013-01-13 23:03:00,2.7,-0.5,30.26,WSW,252,1.0,3.0,86,0.00,,SCT110,0.00,VWS V14.01,2013-01-14 05:03:00,
2013-01-13 23:08:00,2.6,-0.6,30.26,WSW,250,1.0,3.0,86,0.00,,SCT110,0.00,VWS V14.01,2013-01-14 05:08:00,
2013-01-13 23:13:00,2.5,-0.7,30.26,WSW,255,3.0,3.0,86,0.00,,SCT110,0.00,VWS V14.01,2013-01-14 05:13:00,
2013-01-13 23:18:00,2.5,-0.7,30.26,WSW,248,3.0,4.0,86,0.00,,SCT110,0.00,VWS V14.01,2013-01-14 05:18:00,
2013-01-13 23:23:00,2.5,-0.7,30.26,WSW,252,2.0,4.0,86,0.00,,SCT110,0.00,VWS V14.01,2013-01-14 05:23:00,
2013-01-13 23:28:00,2.5,-0.7,30.26,West,264,2.0,2.0,86,0.00,,SCT110,0.00,VWS V14.01,2013-01-14 05:28:00,
2013-01-13 23:33:00,2.5,-0.7,30.26,West,264,3.0,4.0,86,0.00,,CLR,0.00,VWS V14.01,2013-01-14 05:33:00,
2013-01-13 23:38:00,2.5,-0.7,30.27,WSW,257,1.0,4.0,86,0.00,,CLR,0.00,VWS V14.01,2013-01-14 05:38:00,
2013-01-13 23:43:00,2.4,-0.8,30.27,WSW,248,2.0,4.0,86,0.00,,CLR,0.00,VWS V14.01,2013-01-14 05:43:00,
2013-01-13 23:48:00,2.4,-0.8,30.27,WSW,250,1.0,4.0,86,0.00,,CLR,0.00,VWS V14.01,2013-01-14 05:48:00,
2013-01-13 23:53:00,2.3,-0.9,30.27,WSW,252,1.0,4.0,86,0.00,,CLR,0.00,VWS V14.01,2013-01-14 05:53:00,
2013-01-13 23:58:00,2.1,-1.1,30.27,WSW,245,0.0,1.0,86,0.00,,CLR,0.00,VWS V14.01,2013-01-14 05:58:00,